createdAt,value
2022-09-24T00:00:14.397Z,4.25
2022-09-24T00:03:22.963Z,3.19
2022-09-24T00:06:31.054Z,3.86
2022-09-24T00:09:36.970Z,4.45
2022-09-24T00:12:43.371Z,4.10
2022-09-24T00:15:51.680Z,3.49
2022-09-24T00:19:00.566Z,3.47
2022-09-24T00:22:06.817Z,2.97
2022-09-24T00:25:30.888Z,3.78
2022-09-24T00:28:37.221Z,4.48
2022-09-24T00:31:43.508Z,4.03
2022-09-24T00:34:53.323Z,3.91
2022-09-24T00:37:59.886Z,2.66
2022-09-24T00:41:06.452Z,3.17
2022-09-24T00:44:55.646Z,2.51
2022-09-24T00:48:01.792Z,2.19
2022-09-24T00:51:11.045Z,2.17
2022-09-24T00:54:20.981Z,2.17
2022-09-24T00:57:28.402Z,2.52
2022-09-24T01:00:35.406Z,3.77
2022-09-24T01:03:43.285Z,3.45
2022-09-24T01:06:51.369Z,3.19
2022-09-24T01:09:58.051Z,3.05
2022-09-24T01:13:15.231Z,3.30
2022-09-24T01:16:29.662Z,2.78
2022-09-24T01:19:54.515Z,3.06
2022-09-24T01:23:23.262Z,3.13
2022-09-24T01:26:48.576Z,3.54
2022-09-24T01:30:05.394Z,3.55
2022-09-24T01:33:17.420Z,3.56
2022-09-24T01:36:24.985Z,3.46
2022-09-24T01:39:33.195Z,2.45
2022-09-24T01:42:43.992Z,2.37
2022-09-24T01:45:52.343Z,3.35
2022-09-24T01:48:58.571Z,3.53
2022-09-24T01:52:11.896Z,3.72
2022-09-24T01:55:21.552Z,3.73
2022-09-24T01:58:33.085Z,2.71
2022-09-24T02:01:48.703Z,3.45
2022-09-24T02:05:00.864Z,3.55
2022-09-24T02:08:10.819Z,3.18
2022-09-24T02:11:21.896Z,2.47
2022-09-24T02:14:32.907Z,2.07
2022-09-24T02:17:45.352Z,2.62
2022-09-24T02:20:52.917Z,1.64
2022-09-24T02:24:04.500Z,1.22
2022-09-24T02:27:10.702Z,1.44
2022-09-24T02:30:17.478Z,2.12
2022-09-24T02:33:59.688Z,2.48
2022-09-24T02:37:08.715Z,2.44
2022-09-24T02:40:16.023Z,2.56
2022-09-24T02:43:22.559Z,3.20
2022-09-24T02:46:28.992Z,2.95
2022-09-24T02:49:36.597Z,2.51
2022-09-24T02:52:42.926Z,2.89
2022-09-24T02:55:49.124Z,1.77
2022-09-24T02:58:55.630Z,1.85
2022-09-24T03:02:01.879Z,1.64
2022-09-24T03:05:10.465Z,1.67
2022-09-24T03:08:16.651Z,1.54
2022-09-24T03:11:22.992Z,2.43
2022-09-24T03:14:29.435Z,2.89
2022-09-24T03:17:35.832Z,2.38
2022-09-24T03:20:43.596Z,2.40
2022-09-24T03:23:49.772Z,2.55
2022-09-24T03:26:56.186Z,2.63
2022-09-24T03:30:20.277Z,1.81
2022-09-24T03:33:26.505Z,2.51
2022-09-24T03:36:34.164Z,2.48
2022-09-24T03:39:40.477Z,2.78
2022-09-24T03:42:46.807Z,2.99
2022-09-24T03:45:53.434Z,1.86
2022-09-24T03:49:00.746Z,1.85
2022-09-24T03:52:08.394Z,1.69
2022-09-24T03:55:14.668Z,1.75
2022-09-24T03:58:20.594Z,1.65
2022-09-24T04:01:27.184Z,1.58
2022-09-24T04:04:33.483Z,1.63
2022-09-24T04:07:41.843Z,0.79
2022-09-24T04:10:48.101Z,1.05
2022-09-24T04:13:54.637Z,1.29
2022-09-24T04:17:01.017Z,1.12
2022-09-24T04:20:08.004Z,1.26
2022-09-24T04:23:15.917Z,0.93
2022-09-24T04:26:21.812Z,1.43
2022-09-24T04:29:28.304Z,1.11
2022-09-24T04:32:34.846Z,1.61
2022-09-24T04:35:41.260Z,1.49
2022-09-24T04:38:49.142Z,1.13
2022-09-24T04:41:55.470Z,0.86
2022-09-24T04:45:03.167Z,1.02
2022-09-24T04:48:09.268Z,1.64
2022-09-24T04:51:15.827Z,1.38
2022-09-24T04:54:23.420Z,2.10
2022-09-24T04:57:36.066Z,1.88
2022-09-24T05:00:43.382Z,2.84
2022-09-24T05:03:49.380Z,2.45
2022-09-24T05:06:55.845Z,2.68
2022-09-24T05:10:04.996Z,2.23
2022-09-24T05:13:11.637Z,2.32
2022-09-24T05:16:17.974Z,2.41
2022-09-24T05:19:24.425Z,3.14
2022-09-24T05:22:31.707Z,3.39
2022-09-24T05:25:59.551Z,4.19
2022-09-24T05:29:04.827Z,3.26
2022-09-24T05:32:12.985Z,4.19
2022-09-24T05:35:20.062Z,3.71
2022-09-24T05:38:26.192Z,3.43
2022-09-24T05:41:34.053Z,3.10
2022-09-24T05:44:40.219Z,3.48
2022-09-24T05:47:47.044Z,4.38
2022-09-24T05:50:55.635Z,4.71
2022-09-24T05:54:02.109Z,5.13
2022-09-24T05:57:09.961Z,5.40
2022-09-24T06:00:16.727Z,5.55
2022-09-24T06:03:22.846Z,6.09
2022-09-24T06:06:29.862Z,6.02
2022-09-24T06:09:36.678Z,6.05
2022-09-24T06:12:44.043Z,6.05
2022-09-24T06:15:50.197Z,6.22
2022-09-24T06:18:55.948Z,6.40
2022-09-24T06:22:02.329Z,5.76
2022-09-24T06:25:10.193Z,6.50
2022-09-24T06:28:17.933Z,6.74
2022-09-24T06:31:24.333Z,6.56
2022-09-24T06:34:30.554Z,7.02
2022-09-24T06:37:36.504Z,7.74
2022-09-24T06:40:43.602Z,7.41
2022-09-24T06:43:51.239Z,7.38
2022-09-24T06:46:58.121Z,7.47
2022-09-24T06:50:04.393Z,8.77
2022-09-24T06:53:12.007Z,8.72
2022-09-24T06:56:18.452Z,8.42
2022-09-24T06:59:26.030Z,8.62
2022-09-24T07:02:32.665Z,9.13
2022-09-24T07:05:43.406Z,8.38
2022-09-24T07:08:52.451Z,8.89
2022-09-24T07:12:01.645Z,8.88
2022-09-24T07:15:10.903Z,9.17
2022-09-24T07:18:18.464Z,10.21
2022-09-24T07:21:24.609Z,9.27
2022-09-24T07:24:30.951Z,10.10
2022-09-24T07:27:37.357Z,9.91
2022-09-24T07:30:45.209Z,10.23
2022-09-24T07:33:51.890Z,10.57
2022-09-24T07:36:58.923Z,10.83
2022-09-24T07:40:05.867Z,11.39
2022-09-24T07:43:14.321Z,10.54
2022-09-24T07:46:21.981Z,11.24
2022-09-24T07:49:32.304Z,11.66
2022-09-24T07:52:38.581Z,11.59
2022-09-24T07:55:45.606Z,11.60
2022-09-24T07:58:52.113Z,11.72
2022-09-24T08:01:59.834Z,12.32
2022-09-24T08:05:07.040Z,12.88
2022-09-24T08:08:13.246Z,12.52
2022-09-24T08:11:20.561Z,13.29
2022-09-24T08:14:26.815Z,13.42
2022-09-24T08:17:34.778Z,12.89
2022-09-24T08:20:41.257Z,13.85
2022-09-24T08:23:47.836Z,13.70
2022-09-24T08:26:54.386Z,14.52
2022-09-24T08:30:00.764Z,14.72
2022-09-24T08:33:08.388Z,14.76
2022-09-24T08:36:15.030Z,14.63
2022-09-24T08:39:21.187Z,14.89
2022-09-24T08:42:36.881Z,15.03
2022-09-24T08:46:07.085Z,14.78
2022-09-24T08:49:18.615Z,15.56
2022-09-24T08:52:37.731Z,14.97
2022-09-24T08:55:48.363Z,15.26
2022-09-24T08:58:59.797Z,15.78
2022-09-24T09:02:36.186Z,15.74
2022-09-24T09:05:57.858Z,15.64
2022-09-24T09:09:12.576Z,16.32
2022-09-24T09:12:24.807Z,16.06
2022-09-24T09:15:35.275Z,16.25
2022-09-24T09:18:46.188Z,17.23
2022-09-24T09:21:58.539Z,17.25
2022-09-24T09:25:18.493Z,16.41
2022-09-24T09:28:24.623Z,16.83
2022-09-24T09:31:44.438Z,17.25
2022-09-24T09:35:01.114Z,17.68
2022-09-24T09:38:20.751Z,17.69
2022-09-24T09:41:36.165Z,17.32
2022-09-24T09:44:44.825Z,17.88
2022-09-24T09:47:55.898Z,17.35
2022-09-24T09:51:06.207Z,18.24
2022-09-24T09:54:13.971Z,17.39
2022-09-24T09:57:23.326Z,17.28
2022-09-24T10:00:35.255Z,17.50
2022-09-24T10:03:50.156Z,17.95
2022-09-24T10:07:06.030Z,17.60
2022-09-24T10:10:20.972Z,18.52
2022-09-24T10:13:28.765Z,18.46
2022-09-24T10:16:40.610Z,18.43
2022-09-24T10:19:50.995Z,18.51
2022-09-24T10:23:00.434Z,18.49
2022-09-24T10:26:08.819Z,18.01
2022-09-24T10:29:35.944Z,18.25
2022-09-24T10:32:42.739Z,18.71
2022-09-24T10:35:49.515Z,18.28
2022-09-24T10:39:04.587Z,18.54
2022-09-24T10:42:25.269Z,18.14
2022-09-24T10:45:58.296Z,18.86
2022-09-24T10:49:16.375Z,18.67
2022-09-24T10:52:40.647Z,19.05
2022-09-24T10:55:57.283Z,19.15
2022-09-24T10:59:23.735Z,18.99
2022-09-24T11:03:02.106Z,19.13
2022-09-24T11:06:19.459Z,19.54
2022-09-24T11:09:38.889Z,18.73
2022-09-24T11:12:54.004Z,18.93
2022-09-24T11:16:21.127Z,19.34
2022-09-24T11:19:52.000Z,19.50
2022-09-24T11:23:24.667Z,20.04
2022-09-24T11:26:39.655Z,19.90
2022-09-24T11:30:04.014Z,19.69
2022-09-24T11:33:26.385Z,19.24
2022-09-24T11:36:47.307Z,20.17
2022-09-24T11:40:10.978Z,19.97
2022-09-24T11:43:42.311Z,19.70
2022-09-24T11:47:04.142Z,20.26
2022-09-24T11:50:34.033Z,20.09
2022-09-24T11:53:44.931Z,20.17
2022-09-24T11:56:57.946Z,20.68
2022-09-24T12:00:09.774Z,20.50
2022-09-24T12:03:25.891Z,20.58
2022-09-24T12:06:37.851Z,20.25
2022-09-24T12:09:49.398Z,20.99
2022-09-24T12:13:04.307Z,19.89
2022-09-24T12:16:14.724Z,20.11
2022-09-24T12:19:25.608Z,20.22
2022-09-24T12:22:37.004Z,20.47
2022-09-24T12:25:46.596Z,20.11
2022-09-24T12:29:17.596Z,20.37
2022-09-24T12:32:48.871Z,21.43
2022-09-24T12:36:04.605Z,21.25
2022-09-24T12:39:16.688Z,21.46
2022-09-24T12:42:26.119Z,20.89
2022-09-24T12:45:34.269Z,21.32
2022-09-24T12:48:41.248Z,22.30
2022-09-24T12:51:47.968Z,21.98
2022-09-24T12:55:02.553Z,21.75
2022-09-24T12:58:29.907Z,22.16
2022-09-24T13:01:36.569Z,21.79
2022-09-24T13:04:46.366Z,22.15
2022-09-24T13:08:01.598Z,22.83
2022-09-24T13:11:31.174Z,22.81
2022-09-24T13:14:37.676Z,22.34
2022-09-24T13:17:45.035Z,23.01
2022-09-24T13:21:07.692Z,21.65
2022-09-24T13:24:30.923Z,22.90
2022-09-24T13:27:41.391Z,20.21
2022-09-24T13:30:53.220Z,20.98
2022-09-24T13:34:04.054Z,20.66
2022-09-24T13:37:20.148Z,20.88
2022-09-24T13:40:30.082Z,21.35
2022-09-24T13:43:48.591Z,21.61
2022-09-24T13:47:00.622Z,22.76
2022-09-24T13:50:16.292Z,22.99
2022-09-24T13:53:30.039Z,22.27
2022-09-24T13:56:36.298Z,22.57
2022-09-24T13:59:43.951Z,22.31
2022-09-24T14:02:58.056Z,23.49
2022-09-24T14:06:12.705Z,22.57
2022-09-24T14:09:31.681Z,22.20
2022-09-24T14:12:38.064Z,22.56
2022-09-24T14:15:55.295Z,21.60
2022-09-24T14:19:04.452Z,21.22
2022-09-24T14:22:16.201Z,21.28
2022-09-24T14:25:29.160Z,22.03
2022-09-24T14:28:36.320Z,21.55
2022-09-24T14:31:50.380Z,21.48
2022-09-24T14:34:59.679Z,21.64
2022-09-24T14:38:09.635Z,20.61
2022-09-24T14:41:19.166Z,20.79
2022-09-24T14:44:28.241Z,19.74
2022-09-24T14:47:37.720Z,19.62
2022-09-24T14:50:43.927Z,19.79
2022-09-24T14:53:59.520Z,19.68
2022-09-24T14:57:13.556Z,18.97
2022-09-24T15:00:25.250Z,18.78
2022-09-24T15:03:40.330Z,18.60
2022-09-24T15:06:49.136Z,18.97
2022-09-24T15:09:57.715Z,18.61
2022-09-24T15:13:15.498Z,18.47
2022-09-24T15:16:28.879Z,18.13
2022-09-24T15:19:37.321Z,18.48
2022-09-24T15:22:43.623Z,18.15
2022-09-24T15:25:50.708Z,17.74
2022-09-24T15:28:58.668Z,17.30
2022-09-24T15:32:17.344Z,17.87
2022-09-24T15:35:25.178Z,17.40
2022-09-24T15:38:31.676Z,17.04
2022-09-24T15:41:40.308Z,16.50
2022-09-24T15:44:47.680Z,16.47
2022-09-24T15:47:54.997Z,16.12
2022-09-24T15:51:10.133Z,15.89
2022-09-24T15:54:18.018Z,15.35
2022-09-24T15:57:24.424Z,15.10
2022-09-24T16:00:30.950Z,15.35
2022-09-24T16:03:37.384Z,15.47
2022-09-24T16:06:45.171Z,14.90
2022-09-24T16:09:51.503Z,14.54
2022-09-24T16:12:57.892Z,14.58
2022-09-24T16:16:07.005Z,14.80
2022-09-24T16:19:13.200Z,14.46
2022-09-24T16:22:20.914Z,14.61
2022-09-24T16:25:28.171Z,14.15
2022-09-24T16:28:34.378Z,13.78
2022-09-24T16:31:40.686Z,13.73
2022-09-24T16:34:46.909Z,13.59
2022-09-24T16:37:55.037Z,13.72
2022-09-24T16:41:01.385Z,13.67
2022-09-24T16:44:07.839Z,13.54
2022-09-24T16:47:16.409Z,13.31
2022-09-24T16:50:23.795Z,13.47
2022-09-24T16:53:31.514Z,13.42
2022-09-24T16:56:38.768Z,13.14
2022-09-24T16:59:44.843Z,12.96
2022-09-24T17:02:50.949Z,12.84
2022-09-24T17:05:57.300Z,12.87
2022-09-24T17:09:22.767Z,12.78
2022-09-24T17:12:28.954Z,12.66
2022-09-24T17:15:35.730Z,13.01
2022-09-24T17:18:41.953Z,12.97
2022-09-24T17:21:50.331Z,13.04
2022-09-24T17:24:58.422Z,12.73
2022-09-24T17:28:04.452Z,12.20
2022-09-24T17:31:12.642Z,12.29
2022-09-24T17:34:19.426Z,12.73
2022-09-24T17:37:27.428Z,12.74
2022-09-24T17:40:35.184Z,12.22
2022-09-24T17:43:42.764Z,11.68
2022-09-24T17:46:49.187Z,12.11
2022-09-24T17:49:55.784Z,12.30
2022-09-24T17:53:03.926Z,12.09
2022-09-24T17:56:13.804Z,11.89
2022-09-24T17:59:25.575Z,11.69
2022-09-24T18:02:32.839Z,11.25
2022-09-24T18:05:39.245Z,10.73
2022-09-24T18:08:46.781Z,10.68
2022-09-24T18:11:54.498Z,10.32
2022-09-24T18:15:00.412Z,10.45
2022-09-24T18:18:07.060Z,10.42
2022-09-24T18:21:15.449Z,10.07
2022-09-24T18:24:23.054Z,9.97
2022-09-24T18:27:31.848Z,9.92
2022-09-24T18:30:38.539Z,10.18
2022-09-24T18:33:46.630Z,10.24
2022-09-24T18:36:52.736Z,10.06
2022-09-24T18:39:58.713Z,10.17
2022-09-24T18:43:06.517Z,10.07
2022-09-24T18:46:14.624Z,10.26
2022-09-24T18:49:21.291Z,10.15
2022-09-24T18:52:28.973Z,10.05
2022-09-24T18:55:40.733Z,9.58
2022-09-24T18:58:48.326Z,10.02
2022-09-24T19:01:54.544Z,9.78
2022-09-24T19:05:01.000Z,9.93
2022-09-24T19:08:07.710Z,9.49
2022-09-24T19:11:16.335Z,9.36
2022-09-24T19:14:24.893Z,8.81
2022-09-24T19:17:31.251Z,9.09
2022-09-24T19:20:38.539Z,9.27
2022-09-24T19:23:47.579Z,8.98
2022-09-24T19:26:54.274Z,8.90
2022-09-24T19:30:01.794Z,8.79
2022-09-24T19:33:08.701Z,8.78
2022-09-24T19:36:15.758Z,9.19
2022-09-24T19:39:22.319Z,8.97
2022-09-24T19:42:28.320Z,9.11
2022-09-24T19:45:36.531Z,9.15
2022-09-24T19:48:44.858Z,8.09
2022-09-24T19:51:51.342Z,8.15
2022-09-24T19:54:57.729Z,7.33
2022-09-24T19:58:04.152Z,7.87
2022-09-24T20:01:16.867Z,7.72
2022-09-24T20:04:24.752Z,6.94
2022-09-24T20:07:30.858Z,7.85
2022-09-24T20:10:37.724Z,7.09
2022-09-24T20:13:46.327Z,7.93
2022-09-24T20:16:54.000Z,7.85
2022-09-24T20:20:01.017Z,7.99
2022-09-24T20:23:08.330Z,7.48
2022-09-24T20:26:35.414Z,7.32
2022-09-24T20:29:43.639Z,6.81
2022-09-24T20:32:51.558Z,6.83
2022-09-24T20:36:03.749Z,6.60
2022-09-24T20:39:10.103Z,6.43
2022-09-24T20:42:16.232Z,6.58
2022-09-24T20:45:22.744Z,7.35
2022-09-24T20:48:32.748Z,7.47
2022-09-24T20:51:38.920Z,7.40
2022-09-24T20:55:02.454Z,7.26
2022-09-24T20:58:09.233Z,6.86
2022-09-24T21:01:15.909Z,6.06
2022-09-24T21:04:37.098Z,6.76
2022-09-24T21:07:43.879Z,6.44
2022-09-24T21:10:50.011Z,6.75
2022-09-24T21:13:58.482Z,6.87
2022-09-24T21:17:06.128Z,6.81
2022-09-24T21:20:13.771Z,7.06
2022-09-24T21:23:22.088Z,7.21
2022-09-24T21:26:30.128Z,6.83
2022-09-24T21:29:36.118Z,6.27
2022-09-24T21:32:42.675Z,6.61
2022-09-24T21:35:50.408Z,5.25
2022-09-24T21:38:58.287Z,4.76
2022-09-24T21:42:05.476Z,4.99
2022-09-24T21:45:13.833Z,6.01
2022-09-24T21:48:20.820Z,5.99
2022-09-24T21:51:30.314Z,6.49
2022-09-24T21:54:36.708Z,6.63
2022-09-24T21:57:42.877Z,6.59
2022-09-24T22:00:49.273Z,5.96
2022-09-24T22:03:56.664Z,5.58
2022-09-24T22:07:04.067Z,5.53
2022-09-24T22:10:11.249Z,6.29
2022-09-24T22:13:18.039Z,6.43
2022-09-24T22:16:24.952Z,6.31
2022-09-24T22:19:31.323Z,5.84
2022-09-24T22:22:38.776Z,5.54
2022-09-24T22:25:46.181Z,5.66
2022-09-24T22:28:52.223Z,6.14
2022-09-24T22:31:58.758Z,5.30
2022-09-24T22:35:22.373Z,5.06
2022-09-24T22:38:29.769Z,5.28
2022-09-24T22:41:38.810Z,5.25
2022-09-24T22:44:44.801Z,4.61
2022-09-24T22:47:51.086Z,4.67
2022-09-24T22:50:57.671Z,5.54
2022-09-24T22:54:05.465Z,5.86
2022-09-24T22:57:11.666Z,5.58
2022-09-24T23:00:18.350Z,4.82
2022-09-24T23:03:24.924Z,4.29
2022-09-24T23:06:33.953Z,4.11
2022-09-24T23:09:41.630Z,4.18
2022-09-24T23:12:48.028Z,4.42
2022-09-24T23:15:54.865Z,5.13
2022-09-24T23:19:02.856Z,4.62
2022-09-24T23:22:09.183Z,5.51
2022-09-24T23:25:17.794Z,5.01
2022-09-24T23:28:24.375Z,4.96
2022-09-24T23:31:33.004Z,4.98
2022-09-24T23:34:42.285Z,5.02
2022-09-24T23:37:48.588Z,4.59
2022-09-24T23:40:56.995Z,4.35
2022-09-24T23:44:03.621Z,4.88
2022-09-24T23:47:10.264Z,4.55
2022-09-24T23:50:16.640Z,4.98
2022-09-24T23:53:22.986Z,4.18
2022-09-24T23:56:30.885Z,4.37
2022-09-24T23:59:37.056Z,5.33
